createdAt,value
2023-04-02T00:00:09.790Z,70.20
2023-04-02T00:03:15.630Z,70.20
2023-04-02T00:06:33.363Z,70.40
2023-04-02T00:09:38.689Z,70.40
2023-04-02T00:12:40.890Z,70.40
2023-04-02T00:15:46.892Z,70.40
2023-04-02T00:18:53.451Z,70.60
2023-04-02T00:21:57.625Z,71.40
2023-04-02T00:25:07.919Z,70.80
2023-04-02T00:28:21.224Z,70.80
2023-04-02T00:31:24.496Z,70.90
2023-04-02T00:34:32.049Z,71.00
2023-04-02T00:37:42.428Z,71.00
2023-04-02T00:40:44.644Z,71.10
2023-04-02T00:43:50.992Z,71.90
2023-04-02T00:46:53.325Z,71.20
2023-04-02T00:50:11.977Z,71.30
2023-04-02T00:53:24.658Z,71.30
2023-04-02T00:56:46.512Z,71.30
2023-04-02T01:00:07.954Z,71.40
2023-04-02T01:03:13.357Z,71.70
2023-04-02T01:06:19.045Z,71.60
2023-04-02T01:09:30.352Z,71.70
2023-04-02T01:12:49.563Z,71.60
2023-04-02T01:16:31.286Z,71.70
2023-04-02T01:20:07.785Z,71.80
2023-04-02T01:23:18.359Z,71.90
2023-04-02T01:26:57.922Z,72.00
2023-04-02T01:30:03.359Z,71.90
2023-04-02T01:33:07.270Z,72.00
2023-04-02T01:36:24.267Z,72.20
2023-04-02T01:39:47.710Z,72.20
2023-04-02T01:43:14.242Z,72.30
2023-04-02T01:46:32.291Z,72.40
2023-04-02T01:49:34.629Z,72.30
2023-04-02T01:52:42.521Z,72.40
2023-04-02T01:55:49.159Z,72.40
2023-04-02T01:58:51.529Z,72.50
2023-04-02T02:02:06.547Z,72.50
2023-04-02T02:05:18.867Z,72.60
2023-04-02T02:08:38.664Z,72.60
2023-04-02T02:11:42.794Z,72.70
2023-04-02T02:14:52.486Z,72.60
2023-04-02T02:18:02.757Z,72.60
2023-04-02T02:21:08.482Z,72.70
2023-04-02T02:24:26.723Z,72.80
2023-04-02T02:27:29.014Z,72.90
2023-04-02T02:30:51.594Z,72.90
2023-04-02T02:33:59.125Z,73.00
2023-04-02T02:37:24.298Z,73.10
2023-04-02T02:40:41.005Z,73.00
2023-04-02T02:44:00.421Z,73.00
2023-04-02T02:47:16.761Z,73.20
2023-04-02T02:50:26.013Z,73.30
2023-04-02T02:53:30.272Z,73.40
2023-04-02T02:56:37.534Z,73.50
2023-04-02T02:59:41.028Z,73.50
2023-04-02T03:02:44.975Z,73.70
2023-04-02T03:06:05.546Z,73.70
2023-04-02T03:09:30.598Z,73.70
2023-04-02T03:12:51.571Z,73.60
2023-04-02T03:16:16.845Z,73.60
2023-04-02T03:19:55.237Z,73.60
2023-04-02T03:23:21.849Z,73.70
2023-04-02T03:26:35.982Z,73.70
2023-04-02T03:30:04.832Z,73.80
2023-04-02T03:33:29.812Z,73.80
2023-04-02T03:36:38.623Z,73.60
2023-04-02T03:39:56.435Z,74.00
2023-04-02T03:43:22.144Z,74.10
2023-04-02T03:46:29.582Z,74.10
2023-04-02T03:49:49.992Z,74.10
2023-04-02T03:52:52.429Z,74.10
2023-04-02T03:55:55.990Z,74.20
2023-04-02T03:59:35.017Z,74.20
2023-04-02T04:03:02.769Z,74.20
2023-04-02T04:06:24.142Z,74.20
2023-04-02T04:09:31.865Z,74.30
2023-04-02T04:12:42.534Z,74.40
2023-04-02T04:15:58.660Z,74.40
2023-04-02T04:19:27.732Z,74.30
2023-04-02T04:22:30.719Z,74.30
2023-04-02T04:25:41.358Z,74.50
2023-04-02T04:29:06.057Z,74.50
2023-04-02T04:32:34.328Z,74.60
2023-04-02T04:35:51.817Z,74.50
2023-04-02T04:38:59.696Z,74.50
2023-04-02T04:42:07.273Z,74.50
2023-04-02T04:45:34.524Z,74.60
2023-04-02T04:48:56.487Z,74.60
2023-04-02T04:52:19.808Z,74.60
2023-04-02T04:55:25.490Z,74.60
2023-04-02T04:58:45.958Z,74.70
2023-04-02T05:01:58.911Z,74.80
2023-04-02T05:05:04.067Z,74.90
2023-04-02T05:08:16.749Z,75.00
2023-04-02T05:11:35.012Z,75.10
2023-04-02T05:14:58.426Z,75.10
2023-04-02T05:18:31.473Z,75.10
2023-04-02T05:21:46.112Z,75.20
2023-04-02T05:24:52.497Z,75.20
2023-04-02T05:28:10.665Z,75.30
2023-04-02T05:31:42.735Z,75.40
2023-04-02T05:34:50.101Z,75.50
2023-04-02T05:37:52.777Z,75.50
2023-04-02T05:41:27.193Z,75.50
2023-04-02T05:44:35.023Z,75.50
2023-04-02T05:47:43.412Z,75.70
2023-04-02T05:50:54.425Z,75.70
2023-04-02T05:54:12.284Z,76.60
2023-04-02T05:57:23.148Z,75.80
2023-04-02T06:01:02.819Z,75.80
2023-04-02T06:04:31.292Z,75.70
2023-04-02T06:07:58.742Z,76.00
2023-04-02T06:11:12.327Z,75.90
2023-04-02T06:14:18.048Z,76.00
2023-04-02T06:17:22.558Z,76.20
2023-04-02T06:20:25.190Z,76.30
2023-04-02T06:23:46.885Z,76.20
2023-04-02T06:26:57.855Z,76.90
2023-04-02T06:30:05.784Z,76.30
2023-04-02T06:33:11.368Z,76.30
2023-04-02T06:36:15.267Z,76.50
2023-04-02T06:39:23.053Z,76.50
2023-04-02T06:42:33.339Z,76.50
2023-04-02T06:45:45.929Z,76.30
2023-04-02T06:49:02.086Z,76.70
2023-04-02T06:52:11.358Z,76.80
2023-04-02T06:55:41.697Z,76.90
2023-04-02T06:58:44.783Z,76.70
2023-04-02T07:02:03.952Z,77.00
2023-04-02T07:05:11.865Z,77.10
2023-04-02T07:08:19.923Z,77.10
2023-04-02T07:11:23.059Z,77.30
2023-04-02T07:14:28.368Z,77.20
2023-04-02T07:17:30.947Z,77.60
2023-04-02T07:20:37.739Z,77.50
2023-04-02T07:23:43.859Z,77.60
2023-04-02T07:26:48.404Z,78.10
2023-04-02T07:29:50.640Z,78.00
2023-04-02T07:32:52.894Z,78.20
2023-04-02T07:35:56.360Z,78.10
2023-04-02T07:38:58.735Z,78.10
2023-04-02T07:42:02.349Z,78.20
2023-04-02T07:45:06.132Z,78.30
2023-04-02T07:48:11.179Z,78.30
2023-04-02T07:51:31.735Z,78.40
2023-04-02T07:54:34.052Z,78.40
2023-04-02T07:57:39.685Z,78.80
2023-04-02T08:00:41.906Z,78.60
2023-04-02T08:03:44.444Z,78.80
2023-04-02T08:06:47.683Z,78.80
2023-04-02T08:09:49.884Z,78.70
2023-04-02T08:12:52.164Z,78.70
2023-04-02T08:15:54.432Z,78.50
2023-04-02T08:18:56.749Z,78.80
2023-04-02T08:21:59.329Z,78.90
2023-04-02T08:25:01.512Z,78.70
2023-04-02T08:28:03.748Z,78.80
2023-04-02T08:31:09.247Z,78.80
2023-04-02T08:34:12.249Z,78.90
2023-04-02T08:37:15.297Z,79.00
2023-04-02T08:40:29.471Z,79.00
2023-04-02T08:44:03.985Z,78.90
2023-04-02T08:47:08.832Z,79.10
2023-04-02T08:50:36.580Z,79.30
2023-04-02T08:53:42.113Z,79.10
2023-04-02T08:56:52.182Z,79.10
2023-04-02T09:00:06.309Z,79.20
2023-04-02T09:03:28.011Z,78.70
2023-04-02T09:06:30.439Z,79.20
2023-04-02T09:09:38.135Z,79.10
2023-04-02T09:12:43.368Z,79.40
2023-04-02T09:15:45.609Z,81.60
2023-04-02T09:18:49.102Z,83.10
2023-04-02T09:22:16.723Z,83.00
2023-04-02T09:25:27.162Z,82.90
2023-04-02T09:28:29.429Z,83.10
2023-04-02T09:31:44.546Z,83.50
2023-04-02T09:34:47.187Z,83.70
2023-04-02T09:38:17.814Z,83.50
2023-04-02T09:41:21.196Z,83.10
2023-04-02T09:44:31.307Z,84.10
2023-04-02T09:47:33.530Z,84.90
2023-04-02T09:50:36.209Z,84.90
2023-04-02T09:53:46.386Z,84.80
2023-04-02T09:57:18.902Z,85.30
2023-04-02T10:00:39.596Z,85.60
2023-04-02T10:03:43.385Z,86.10
2023-04-02T10:06:53.598Z,86.50
2023-04-02T10:09:59.650Z,86.90
2023-04-02T10:13:23.212Z,86.00
2023-04-02T10:16:39.291Z,87.10
2023-04-02T10:19:46.059Z,87.50
2023-04-02T10:22:48.348Z,87.20
2023-04-02T10:26:03.845Z,87.30
2023-04-02T10:29:31.542Z,88.00
2023-04-02T10:32:46.603Z,87.80
2023-04-02T10:36:12.045Z,88.20
2023-04-02T10:39:17.836Z,88.50
2023-04-02T10:42:34.593Z,88.40
2023-04-02T10:46:00.948Z,88.30
2023-04-02T10:49:22.307Z,89.30
2023-04-02T10:52:34.070Z,88.70
2023-04-02T10:55:43.390Z,88.70
2023-04-02T10:59:00.631Z,88.70
2023-04-02T11:02:24.809Z,88.30
2023-04-02T11:05:37.593Z,89.40
2023-04-02T11:08:45.918Z,89.20
2023-04-02T11:11:53.031Z,88.70
2023-04-02T11:14:56.337Z,88.60
2023-04-02T11:17:58.810Z,89.20
2023-04-02T11:21:06.933Z,89.90
2023-04-02T11:24:24.501Z,88.80
2023-04-02T11:27:29.806Z,88.60
2023-04-02T11:30:32.162Z,89.00
2023-04-02T11:33:46.134Z,89.10
2023-04-02T11:36:55.150Z,88.50
2023-04-02T11:40:01.844Z,88.60
2023-04-02T11:43:37.374Z,88.60
2023-04-02T11:46:41.769Z,88.00
2023-04-02T11:49:56.366Z,88.50
2023-04-02T11:53:24.718Z,88.00
2023-04-02T11:56:33.137Z,88.60
2023-04-02T12:00:17.962Z,88.40
2023-04-02T12:03:57.750Z,88.00
2023-04-02T12:07:27.023Z,88.50
2023-04-02T12:10:34.575Z,88.10
2023-04-02T12:13:42.791Z,88.10
2023-04-02T12:16:45.211Z,88.30
2023-04-02T12:20:04.367Z,88.40
2023-04-02T12:23:20.791Z,88.40
2023-04-02T12:26:32.247Z,88.20
2023-04-02T12:29:34.639Z,88.00
2023-04-02T12:32:37.072Z,87.60
2023-04-02T12:35:41.450Z,87.40
2023-04-02T12:38:56.187Z,87.10
2023-04-02T12:41:58.844Z,86.70
2023-04-02T12:45:01.998Z,86.20
2023-04-02T12:48:07.178Z,86.20
2023-04-02T12:51:10.803Z,86.00
2023-04-02T12:54:21.197Z,85.80
2023-04-02T12:57:42.072Z,85.60
2023-04-02T13:00:44.374Z,85.50
2023-04-02T13:04:13.778Z,84.80
2023-04-02T13:07:21.825Z,84.10
2023-04-02T13:10:26.751Z,83.90
2023-04-02T13:13:34.238Z,83.80
2023-04-02T13:16:40.076Z,83.80
2023-04-02T13:19:42.310Z,83.80
2023-04-02T13:22:44.528Z,84.00
2023-04-02T13:25:46.770Z,83.90
2023-04-02T13:29:10.174Z,83.70
2023-04-02T13:32:13.536Z,83.10
2023-04-02T13:35:16.054Z,82.90
2023-04-02T13:38:18.356Z,82.80
2023-04-02T13:41:27.543Z,82.00
2023-04-02T13:44:32.305Z,81.80
2023-04-02T13:47:34.493Z,81.00
2023-04-02T13:50:36.930Z,80.00
2023-04-02T13:53:39.493Z,80.10
2023-04-02T13:56:41.990Z,79.80
2023-04-02T13:59:44.345Z,79.10
2023-04-02T14:03:16.703Z,77.70
2023-04-02T14:06:46.756Z,77.80
2023-04-02T14:10:10.401Z,77.60
2023-04-02T14:13:43.685Z,78.20
2023-04-02T14:17:09.733Z,78.30
2023-04-02T14:20:32.159Z,78.20
2023-04-02T14:23:59.709Z,77.10
2023-04-02T14:27:17.645Z,75.90
2023-04-02T14:30:43.210Z,74.70
2023-04-02T14:33:53.208Z,72.90
2023-04-02T14:37:19.686Z,72.10
2023-04-02T14:40:46.614Z,72.00
2023-04-02T14:44:00.478Z,69.50
2023-04-02T14:47:35.550Z,67.60
2023-04-02T14:50:40.631Z,66.90
2023-04-02T14:54:07.576Z,66.40
2023-04-02T14:57:18.901Z,65.30
2023-04-02T15:00:40.616Z,64.50
2023-04-02T15:03:57.649Z,65.00
2023-04-02T15:07:07.816Z,64.20
2023-04-02T15:10:28.555Z,64.20
2023-04-02T15:13:37.584Z,65.20
2023-04-02T15:16:39.891Z,64.60
2023-04-02T15:19:42.151Z,64.60
2023-04-02T15:23:31.114Z,64.60
2023-04-02T15:26:46.508Z,64.20
2023-04-02T15:29:51.765Z,64.40
2023-04-02T15:32:57.996Z,64.10
2023-04-02T15:36:28.602Z,63.90
2023-04-02T15:39:53.210Z,64.40
2023-04-02T15:43:06.912Z,64.20
2023-04-02T15:46:38.508Z,64.20
2023-04-02T15:49:41.388Z,64.40
2023-04-02T15:53:18.481Z,64.70
2023-04-02T15:56:41.910Z,65.30
2023-04-02T15:59:57.949Z,65.30
2023-04-02T16:03:12.199Z,65.90
2023-04-02T16:06:28.197Z,65.80
2023-04-02T16:09:53.065Z,66.00
2023-04-02T16:12:56.685Z,66.40
2023-04-02T16:16:22.143Z,66.60
2023-04-02T16:19:35.916Z,66.80
2023-04-02T16:22:49.795Z,66.60
2023-04-02T16:26:22.990Z,66.70
2023-04-02T16:29:59.975Z,67.60
2023-04-02T16:33:06.619Z,67.90
2023-04-02T16:36:38.231Z,67.80
2023-04-02T16:39:49.197Z,68.20
2023-04-02T16:43:22.609Z,68.30
2023-04-02T16:46:54.384Z,68.60
2023-04-02T16:50:14.204Z,69.00
2023-04-02T16:53:36.672Z,69.20
2023-04-02T16:57:03.723Z,69.60
2023-04-02T17:00:17.271Z,69.90
2023-04-02T17:03:36.175Z,70.20
2023-04-02T17:06:56.682Z,70.50
2023-04-02T17:10:30.399Z,70.70
2023-04-02T17:13:49.407Z,70.90
2023-04-02T17:16:57.047Z,71.20
2023-04-02T17:20:01.591Z,71.20
2023-04-02T17:23:05.872Z,71.40
2023-04-02T17:26:10.013Z,71.60
2023-04-02T17:29:19.020Z,71.80
2023-04-02T17:32:30.664Z,72.00
2023-04-02T17:35:54.787Z,72.20
2023-04-02T17:39:36.147Z,72.30
2023-04-02T17:42:51.076Z,72.50
2023-04-02T17:46:01.832Z,72.60
2023-04-02T17:49:13.075Z,72.70
2023-04-02T17:53:13.321Z,72.90
2023-04-02T17:56:34.352Z,73.10
2023-04-02T18:00:10.567Z,73.10
2023-04-02T18:03:30.341Z,73.30
2023-04-02T18:06:38.238Z,73.60
2023-04-02T18:10:12.594Z,73.90
2023-04-02T18:13:35.885Z,74.10
2023-04-02T18:17:08.728Z,74.30
2023-04-02T18:20:23.092Z,74.50
2023-04-02T18:23:50.079Z,74.70
2023-04-02T18:27:16.425Z,74.80
2023-04-02T18:30:43.038Z,75.10
2023-04-02T18:34:01.932Z,75.20
2023-04-02T18:37:10.243Z,75.20
2023-04-02T18:40:33.544Z,75.40
2023-04-02T18:44:01.901Z,75.60
2023-04-02T18:47:25.339Z,75.60
2023-04-02T18:50:36.984Z,76.00
2023-04-02T18:53:41.002Z,76.10
2023-04-02T18:56:44.634Z,76.00
2023-04-02T19:00:04.734Z,76.10
2023-04-02T19:03:24.241Z,76.20
2023-04-02T19:06:49.648Z,76.40
2023-04-02T19:09:52.619Z,76.30
2023-04-02T19:12:54.941Z,76.60
2023-04-02T19:16:08.887Z,76.60
2023-04-02T19:19:23.464Z,76.80
2023-04-02T19:22:52.155Z,76.90
2023-04-02T19:26:01.953Z,77.00
2023-04-02T19:29:19.740Z,77.00
2023-04-02T19:32:41.526Z,77.20
2023-04-02T19:36:10.791Z,77.30
2023-04-02T19:39:48.502Z,77.40
2023-04-02T19:42:52.745Z,77.40
2023-04-02T19:45:55.640Z,77.60
2023-04-02T19:49:22.949Z,77.70
2023-04-02T19:52:25.214Z,77.70
2023-04-02T19:55:27.560Z,77.70
2023-04-02T19:58:32.684Z,77.90
2023-04-02T20:01:35.179Z,77.90
2023-04-02T20:04:37.788Z,78.00
2023-04-02T20:07:40.154Z,78.00
2023-04-02T20:10:43.094Z,78.20
2023-04-02T20:13:45.591Z,78.20
2023-04-02T20:16:48.124Z,78.20
2023-04-02T20:19:50.682Z,78.30
2023-04-02T20:22:52.888Z,78.40
2023-04-02T20:25:56.992Z,78.40
2023-04-02T20:28:59.276Z,78.50
2023-04-02T20:32:01.555Z,78.50
2023-04-02T20:35:05.140Z,78.70
2023-04-02T20:38:08.484Z,78.70
2023-04-02T20:41:10.727Z,78.80
2023-04-02T20:44:13.264Z,78.80
2023-04-02T20:47:15.557Z,78.80
2023-04-02T20:50:17.867Z,78.90
2023-04-02T20:53:20.392Z,79.00
2023-04-02T20:56:26.867Z,78.90
2023-04-02T20:59:29.090Z,79.00
2023-04-02T21:02:31.450Z,78.90
2023-04-02T21:05:33.686Z,78.80
2023-04-02T21:08:37.226Z,78.80
2023-04-02T21:11:39.433Z,78.90
2023-04-02T21:14:41.603Z,78.90
2023-04-02T21:17:43.891Z,79.00
2023-04-02T21:20:55.447Z,79.10
2023-04-02T21:24:00.559Z,79.00
2023-04-02T21:27:02.815Z,79.10
2023-04-02T21:30:05.547Z,79.10
2023-04-02T21:33:07.788Z,79.20
2023-04-02T21:36:15.456Z,79.10
2023-04-02T21:39:22.627Z,79.60
2023-04-02T21:42:25.001Z,79.20
2023-04-02T21:45:27.238Z,79.20
2023-04-02T21:48:30.495Z,79.30
2023-04-02T21:51:34.856Z,79.40
2023-04-02T21:54:37.077Z,79.40
2023-04-02T21:57:39.423Z,79.40
2023-04-02T22:00:41.605Z,79.40
2023-04-02T22:03:44.247Z,79.40
2023-04-02T22:06:47.437Z,79.50
2023-04-02T22:09:49.662Z,79.50
2023-04-02T22:12:51.861Z,79.60
2023-04-02T22:16:00.465Z,79.60
2023-04-02T22:19:05.851Z,79.60
2023-04-02T22:22:08.024Z,79.60
2023-04-02T22:25:10.313Z,79.60
2023-04-02T22:28:12.462Z,79.60
2023-04-02T22:31:23.497Z,79.60
2023-04-02T22:34:26.008Z,79.60
2023-04-02T22:37:29.157Z,79.60
2023-04-02T22:40:31.336Z,79.60
2023-04-02T22:43:34.493Z,79.60
2023-04-02T22:46:36.821Z,79.60
2023-04-02T22:49:39.229Z,79.60
2023-04-02T22:52:41.958Z,79.50
2023-04-02T22:55:44.261Z,79.60
2023-04-02T22:58:46.647Z,79.60
2023-04-02T23:01:49.175Z,79.50
2023-04-02T23:04:51.452Z,79.60
2023-04-02T23:07:53.821Z,79.60
2023-04-02T23:11:07.582Z,79.60
2023-04-02T23:14:09.862Z,79.60
2023-04-02T23:17:12.073Z,79.60
2023-04-02T23:20:14.310Z,79.60
2023-04-02T23:23:16.585Z,79.60
2023-04-02T23:26:29.798Z,79.50
2023-04-02T23:29:32.128Z,79.50
2023-04-02T23:32:34.372Z,79.50
2023-04-02T23:35:36.911Z,79.50
2023-04-02T23:38:39.204Z,79.50
2023-04-02T23:41:42.813Z,79.40
2023-04-02T23:44:45.038Z,79.40
2023-04-02T23:47:47.282Z,79.30
2023-04-02T23:50:49.628Z,79.30
2023-04-02T23:53:53.719Z,79.30
2023-04-02T23:56:56.004Z,79.30
2023-04-02T23:59:58.177Z,79.30
